world map with VXC marked

VXC - Airport

This information may not be accurate or current and is not valid for navigation or flight planning. No warranty of fitness for any purpose is made or implied.

flag of Mozambique

Donate via PayPal

Additional information is available on the NEW Great Circle Mapper

Location
City:  Lichinga, Niassa, Mozambique
Name:Lichinga Airport
ICAO / IATA:FQLC / VXC

Details
Type:Airport (Aerodrome, Airfield)
Use:Public/Civil
Latitude:13°16'26"S (-13.273985)
Longitude:35°15'59"E (35.266262)
Datum:WGS 1984
Elevation:4505 ft (1373 m)
Runways:1
Longest:8300 × 148 ft (2530 × 45 m)

Time
Timezone:UTC+2 (DST+4)
Local Time:

Weather
METAR:FQLC  170100Z 14005KT 9999 FEW013 BKN015 FEW020CB 18/18 Q1021 RMK CB TO N/E/SW
TAF:FQLC  (expired)

Related Locations
Nearby:
Farthest:ITO: 11628 mi / 18714 km
Hilo [Hilo Intl], Hawaii, HI, US

Find:

   beyond  
but within

Other Information
Maps:
Sources:

  


 


Great Circle Mapper   Great Circle Mapper
Great Circle Mapper FAQ   Great Circle Mapper FAQ
  Karl's Home Page
KLSē   KLSē Home
   GC on Facebook
Airlines of the World   Airlines of the World
Donate via PayPal


Copyright © 2004-2018, Karl L. Swartz. All rights reserved.
All trademarks mentioned herein belong to their respective owners.

Please see credits for attribution and copyright information.

Karl Swartz <karl@kls2.com>
  Powered by FreeBSD
Valid HTML 4.01!
Labeled with ICRA
hCard Microformat
Geo Microformat